createdAt,value
2019-03-22T01:01:34.789Z,5.
2019-03-22T01:02:34.980Z,4.
2019-03-22T01:04:34.757Z,4.
2019-03-22T01:05:34.745Z,5.
2019-03-22T01:06:34.737Z,4.
2019-03-22T01:07:34.725Z,4.
2019-03-22T01:08:34.819Z,4.
2019-03-22T01:09:34.705Z,5.
2019-03-22T01:10:34.694Z,8.
2019-03-22T01:11:34.685Z,8.
2019-03-22T01:12:34.675Z,11.
2019-03-22T01:13:34.662Z,28.
2019-03-22T01:14:34.705Z,7.
2019-03-22T01:15:34.641Z,6.
2019-03-22T01:16:34.632Z,7.
2019-03-22T01:17:34.618Z,6.
2019-03-22T01:18:34.607Z,8.
2019-03-22T01:19:34.599Z,6.
2019-03-22T01:20:34.739Z,7.
2019-03-22T01:21:34.581Z,6.
2019-03-22T01:22:34.566Z,6.30
2019-03-22T01:23:34.554Z,6.19
2019-03-22T01:24:34.546Z,7.00
2019-03-22T01:25:34.534Z,7.30
2019-03-22T01:26:34.577Z,7.40
2019-03-22T01:27:40.248Z,6.40
2019-03-22T01:28:59.331Z,6.00
2019-03-22T01:29:59.314Z,5.90
2019-03-22T01:30:59.305Z,6.50
2019-03-22T01:31:59.340Z,6.19
2019-03-22T01:32:59.280Z,6.69
2019-03-22T01:33:59.273Z,6.40
2019-03-22T01:34:59.253Z,7.09
2019-03-22T01:35:59.247Z,6.59
2019-03-22T01:36:59.252Z,6.80
2019-03-22T01:37:59.377Z,6.09
2019-03-22T01:38:59.212Z,6.80
2019-03-22T01:39:59.203Z,6.90
2019-03-22T01:40:59.193Z,7.09
2019-03-22T01:41:59.182Z,6.80
2019-03-22T01:42:59.172Z,6.50
2019-03-22T01:43:59.215Z,8.10
2019-03-22T01:44:59.144Z,7.80
2019-03-22T01:45:59.137Z,7.80
2019-03-22T01:46:59.121Z,6.69
2019-03-22T01:47:59.116Z,7.59
2019-03-22T01:48:59.102Z,7.19
2019-03-22T01:49:59.142Z,7.80
2019-03-22T01:50:59.088Z,7.09
2019-03-22T01:51:59.072Z,7.09
2019-03-22T01:52:59.061Z,7.09
2019-03-22T01:53:59.049Z,7.59
2019-03-22T01:54:59.038Z,8.00
2019-03-22T01:55:59.232Z,7.59
2019-03-22T01:56:59.018Z,7.90
2019-03-22T01:57:59.004Z,8.39
2019-03-22T01:58:58.992Z,8.80
2019-03-22T01:59:58.986Z,9.10
2019-03-22T02:00:58.968Z,8.80
2019-03-22T02:01:59.066Z,8.39
2019-03-22T02:02:58.947Z,7.40
2019-03-22T02:03:58.943Z,6.69
2019-03-22T02:04:58.928Z,5.90
2019-03-22T02:05:58.916Z,6.80
2019-03-22T02:06:58.941Z,7.30
2019-03-22T02:07:58.946Z,6.69
2019-03-22T02:08:58.882Z,6.00
2019-03-22T02:09:58.874Z,6.30
2019-03-22T02:10:58.863Z,5.90
2019-03-22T02:11:58.849Z,6.19
2019-03-22T02:12:58.837Z,7.00
2019-03-22T02:13:58.979Z,6.19
2019-03-22T02:14:58.818Z,7.30
2019-03-22T02:15:58.807Z,6.80
2019-03-22T02:16:58.794Z,5.90
2019-03-22T02:17:58.786Z,5.59
2019-03-22T02:18:58.775Z,6.40
2019-03-22T02:19:58.866Z,6.40
2019-03-22T02:20:58.760Z,7.00
2019-03-22T02:21:58.738Z,6.80
2019-03-22T02:22:58.731Z,5.90
2019-03-22T02:23:58.718Z,6.90
2019-03-22T02:24:58.708Z,7.50
2019-03-22T02:25:58.796Z,7.40
2019-03-22T02:26:58.687Z,7.50
2019-03-22T02:28:04.211Z,7.50
2019-03-22T02:28:59.765Z,7.59
2019-03-22T02:29:58.656Z,7.80
2019-03-22T02:30:58.644Z,8.30
2019-03-22T02:31:58.785Z,8.60
2019-03-22T02:32:58.634Z,9.10
2019-03-22T02:33:58.618Z,9.10
2019-03-22T02:34:58.601Z,8.30
2019-03-22T02:35:58.590Z,9.30
2019-03-22T02:36:58.576Z,8.80
2019-03-22T02:37:58.612Z,7.50
2019-03-22T02:38:58.560Z,7.40
2019-03-22T02:39:58.543Z,7.09
2019-03-22T02:40:58.539Z,7.30
2019-03-22T02:41:58.525Z,7.19
2019-03-22T02:42:58.512Z,8.19
2019-03-22T02:43:58.553Z,8.00
2019-03-22T02:44:58.490Z,8.10
2019-03-22T02:45:58.482Z,8.39
2019-03-22T02:46:58.470Z,8.30
2019-03-22T02:47:58.461Z,7.80
2019-03-22T02:48:58.445Z,8.60
2019-03-22T02:49:58.636Z,9.00
2019-03-22T02:50:58.444Z,7.59
2019-03-22T02:51:58.416Z,8.60
2019-03-22T02:52:58.409Z,8.80
2019-03-22T02:53:58.398Z,10.00
2019-03-22T02:54:58.385Z,10.10
2019-03-22T02:55:58.599Z,7.69
2019-03-22T02:56:58.366Z,7.69
2019-03-22T02:57:58.350Z,7.80
2019-03-22T02:58:59.424Z,7.50
2019-03-22T02:59:58.382Z,7.40
2019-03-22T03:00:58.319Z,8.10
2019-03-22T03:01:58.357Z,8.10
2019-03-22T03:02:58.296Z,7.19
2019-03-22T03:03:58.280Z,7.09
2019-03-22T03:04:58.275Z,6.30
2019-03-22T03:05:58.261Z,7.80
2019-03-22T03:06:58.254Z,8.19
2019-03-22T03:07:58.392Z,7.90
2019-03-22T03:08:58.228Z,7.90
2019-03-22T03:09:58.219Z,8.30
2019-03-22T03:10:58.206Z,8.39
2019-03-22T03:11:58.199Z,8.50
2019-03-22T03:12:58.182Z,8.00
2019-03-22T03:13:58.220Z,7.80
2019-03-22T03:14:58.163Z,8.19
2019-03-22T03:15:58.152Z,9.30
2019-03-22T03:16:58.196Z,8.39
2019-03-22T03:17:58.132Z,8.30
2019-03-22T03:18:58.123Z,8.19
2019-03-22T03:19:58.157Z,8.80
2019-03-22T03:20:58.101Z,8.60
2019-03-22T03:21:58.087Z,8.60
2019-03-22T03:22:58.074Z,7.40
2019-03-22T03:23:58.065Z,8.00
2019-03-22T03:24:58.052Z,7.50
2019-03-22T03:25:58.193Z,8.50
2019-03-22T03:26:58.030Z,6.90
2019-03-22T03:27:58.015Z,8.10
2019-03-22T03:28:58.021Z,6.30
2019-03-22T03:29:57.999Z,5.80
2019-03-22T03:30:57.989Z,5.19
2019-03-22T03:31:58.078Z,4.59
2019-03-22T03:32:57.970Z,7.19
2019-03-22T03:33:57.965Z,7.30
2019-03-22T03:34:57.955Z,8.19
2019-03-22T03:35:57.934Z,4.90
2019-03-22T03:36:57.921Z,7.80
2019-03-22T03:37:58.014Z,9.00
2019-03-22T03:38:57.899Z,7.80
2019-03-22T03:39:57.888Z,7.59
2019-03-22T03:40:57.881Z,8.69
2019-03-22T03:41:57.868Z,8.19
2019-03-22T03:42:57.856Z,8.50
2019-03-22T03:43:57.991Z,8.00
2019-03-22T03:44:57.831Z,8.19
2019-03-22T03:45:57.823Z,8.10
2019-03-22T03:46:57.813Z,8.50
2019-03-22T03:47:57.801Z,8.00
2019-03-22T03:48:57.789Z,8.80
2019-03-22T03:49:57.878Z,9.00
2019-03-22T03:50:57.771Z,8.80
2019-03-22T03:51:57.765Z,8.69
2019-03-22T03:52:57.748Z,8.69
2019-03-22T03:53:57.738Z,9.10
2019-03-22T03:54:57.729Z,9.39
2019-03-22T03:55:57.822Z,10.69
2019-03-22T03:56:57.705Z,10.10
2019-03-22T03:57:57.692Z,10.19
2019-03-22T03:58:57.681Z,9.89
2019-03-22T03:59:57.670Z,9.80
2019-03-22T04:00:57.669Z,10.00
2019-03-22T04:01:57.801Z,8.69
2019-03-22T04:02:57.642Z,6.90
2019-03-22T04:03:57.646Z,8.19
2019-03-22T04:04:57.618Z,7.00
2019-03-22T04:05:57.608Z,6.40
2019-03-22T04:06:57.594Z,5.50
2019-03-22T04:07:57.638Z,6.19
2019-03-22T04:08:57.571Z,6.40
2019-03-22T04:09:57.569Z,8.19
2019-03-22T04:10:57.554Z,7.30
2019-03-22T04:11:57.542Z,8.19
2019-03-22T04:12:57.566Z,7.59
2019-03-22T04:13:57.621Z,7.59
2019-03-22T04:14:57.518Z,8.89
2019-03-22T04:15:57.526Z,7.80
2019-03-22T04:16:57.491Z,8.10
2019-03-22T04:17:57.473Z,8.00
2019-03-22T04:18:57.466Z,7.69
2019-03-22T04:19:57.608Z,7.40
2019-03-22T04:20:57.446Z,7.50
2019-03-22T04:21:57.440Z,7.40
2019-03-22T04:22:57.427Z,7.30
2019-03-22T04:23:57.416Z,7.30
2019-03-22T04:24:57.400Z,6.90
2019-03-22T04:25:57.443Z,7.19
2019-03-22T04:26:57.387Z,7.30
2019-03-22T04:27:57.370Z,7.19
2019-03-22T04:29:07.523Z,8.80
2019-03-22T04:30:22.160Z,9.30
2019-03-22T04:31:22.256Z,9.39
2019-03-22T04:32:22.142Z,9.39
2019-03-22T04:33:22.133Z,9.30
2019-03-22T04:34:22.133Z,9.39
2019-03-22T04:35:22.114Z,9.50
2019-03-22T04:36:22.100Z,9.10
2019-03-22T04:37:22.345Z,10.00
2019-03-22T04:38:22.079Z,8.60
2019-03-22T04:39:22.069Z,8.69
2019-03-22T04:40:22.056Z,8.80
2019-03-22T04:41:22.046Z,8.10
2019-03-22T04:42:22.038Z,8.39
2019-03-22T04:43:22.072Z,9.19
2019-03-22T04:44:22.012Z,11.00
2019-03-22T04:45:21.997Z,11.80
2019-03-22T04:46:21.990Z,12.19
2019-03-22T04:47:21.980Z,12.50
2019-03-22T04:48:21.971Z,12.89
2019-03-22T04:49:22.057Z,12.50
2019-03-22T04:50:21.945Z,11.80
2019-03-22T04:51:21.933Z,12.50
2019-03-22T04:52:21.927Z,12.80
2019-03-22T04:53:22.160Z,13.00
2019-03-22T04:54:21.905Z,9.69
2019-03-22T04:55:22.293Z,8.60
2019-03-22T04:56:21.880Z,8.10
2019-03-22T04:57:21.871Z,12.00
2019-03-22T04:58:21.862Z,14.00
2019-03-22T04:59:21.846Z,15.69
2019-03-22T05:00:21.839Z,17.29
2019-03-22T05:01:21.881Z,16.20
2019-03-22T05:02:21.813Z,17.39
2019-03-22T05:03:21.806Z,16.60
2019-03-22T05:04:21.797Z,16.89
2019-03-22T05:05:21.792Z,17.70
2019-03-22T05:06:21.770Z,20.20
2019-03-22T05:07:21.809Z,21.89
2019-03-22T05:08:21.751Z,22.50
2019-03-22T05:09:21.736Z,21.00
2019-03-22T05:10:21.730Z,22.29
2019-03-22T05:11:21.720Z,22.39
2019-03-22T05:12:21.710Z,21.20
2019-03-22T05:13:21.842Z,20.29
2019-03-22T05:14:21.686Z,19.20
2019-03-22T05:15:21.675Z,18.10
2019-03-22T05:16:21.665Z,17.29
2019-03-22T05:17:21.657Z,16.50
2019-03-22T05:18:21.645Z,16.39
2019-03-22T05:19:21.683Z,15.10
2019-03-22T05:20:21.618Z,15.80
2019-03-22T05:21:21.610Z,16.29
2019-03-22T05:22:21.597Z,15.69
2019-03-22T05:23:21.587Z,15.50
2019-03-22T05:24:21.585Z,15.00
2019-03-22T05:25:21.669Z,15.19
2019-03-22T05:26:21.552Z,14.69
2019-03-22T05:27:21.541Z,14.00
2019-03-22T05:28:21.534Z,13.69
2019-03-22T05:29:30.179Z,14.10
2019-03-22T05:30:23.010Z,14.39
2019-03-22T05:31:21.501Z,14.80
2019-03-22T05:32:21.488Z,15.10
2019-03-22T05:33:21.479Z,15.50
2019-03-22T05:34:21.470Z,14.30
2019-03-22T05:35:21.460Z,14.69
2019-03-22T05:36:21.498Z,14.60
2019-03-22T05:37:21.438Z,14.69
2019-03-22T05:38:21.426Z,14.50
2019-03-22T05:39:21.418Z,14.10
2019-03-22T05:40:21.402Z,14.39
2019-03-22T05:41:21.397Z,13.60
2019-03-22T05:42:21.486Z,13.89
2019-03-22T05:43:21.369Z,14.19
2019-03-22T05:44:21.364Z,14.00
2019-03-22T05:45:21.353Z,13.89
2019-03-22T05:46:21.340Z,13.80
2019-03-22T05:47:21.333Z,13.39
2019-03-22T05:48:21.474Z,13.39
2019-03-22T05:49:21.314Z,12.89
2019-03-22T05:50:21.301Z,11.19
2019-03-22T05:51:21.290Z,10.89
2019-03-22T05:52:21.275Z,11.00
2019-03-22T05:53:21.267Z,10.30
2019-03-22T05:54:21.358Z,10.39
2019-03-22T05:55:21.265Z,11.30
2019-03-22T05:56:21.237Z,13.39
2019-03-22T05:57:21.232Z,10.69
2019-03-22T05:58:21.218Z,9.60
2019-03-22T05:59:21.205Z,8.30
2019-03-22T06:00:21.245Z,8.69
2019-03-22T06:01:21.186Z,7.50
2019-03-22T06:02:21.172Z,7.40
2019-03-22T06:03:21.164Z,7.09
2019-03-22T06:04:21.152Z,6.80
2019-03-22T06:05:21.141Z,6.19
2019-03-22T06:06:21.279Z,6.19
2019-03-22T06:07:21.120Z,6.69
2019-03-22T06:08:21.110Z,6.19
2019-03-22T06:09:21.095Z,6.09
2019-03-22T06:10:21.086Z,6.40
2019-03-22T06:11:21.078Z,6.09
2019-03-22T06:12:21.170Z,6.09
2019-03-22T06:13:21.054Z,6.19
2019-03-22T06:14:21.044Z,6.19
2019-03-22T06:15:21.031Z,6.59
2019-03-22T06:16:21.022Z,6.40
2019-03-22T06:17:21.016Z,6.69
2019-03-22T06:18:21.046Z,7.00
2019-03-22T06:19:20.986Z,6.40
2019-03-22T06:20:20.979Z,7.09
2019-03-22T06:21:20.967Z,6.90
2019-03-22T06:22:20.957Z,6.69
2019-03-22T06:23:20.949Z,6.40
2019-03-22T06:24:22.345Z,6.40
2019-03-22T06:25:20.946Z,6.19
2019-03-22T06:26:20.916Z,6.40
2019-03-22T06:27:20.902Z,7.00
2019-03-22T06:28:20.887Z,6.90
2019-03-22T06:29:20.897Z,7.30
2019-03-22T06:30:20.970Z,7.69
2019-03-22T06:31:20.880Z,7.69
2019-03-22T06:32:20.845Z,7.80
2019-03-22T06:33:20.834Z,8.00
2019-03-22T06:34:20.822Z,8.39
2019-03-22T06:35:20.809Z,8.19
2019-03-22T06:36:20.850Z,8.60
2019-03-22T06:37:20.791Z,8.39
2019-03-22T06:38:20.778Z,9.19
2019-03-22T06:39:20.769Z,9.80
2019-03-22T06:40:20.755Z,8.89
2019-03-22T06:41:20.748Z,8.50
2019-03-22T06:42:20.986Z,7.69
2019-03-22T06:43:20.730Z,6.90
2019-03-22T06:44:20.712Z,7.00
2019-03-22T06:45:20.702Z,7.09
2019-03-22T06:46:20.695Z,6.90
2019-03-22T06:47:20.689Z,7.50
2019-03-22T06:48:20.716Z,13.00
2019-03-22T06:49:20.661Z,10.19
2019-03-22T06:50:20.645Z,11.30
2019-03-22T06:51:20.632Z,9.89
2019-03-22T06:52:20.627Z,11.30
2019-03-22T06:53:20.610Z,9.69
2019-03-22T06:54:31.086Z,9.50
2019-03-22T06:55:45.407Z,8.60
2019-03-22T06:56:45.394Z,8.39
2019-03-22T06:57:45.387Z,7.90
2019-03-22T06:58:45.375Z,7.09
2019-03-22T06:59:45.614Z,7.80
2019-03-22T07:00:45.353Z,6.40
2019-03-22T07:01:45.344Z,6.50
2019-03-22T07:02:45.334Z,6.00
2019-03-22T07:03:45.322Z,6.59
2019-03-22T07:04:45.306Z,6.30
2019-03-22T07:05:45.399Z,5.90
2019-03-22T07:06:45.286Z,5.90
2019-03-22T07:07:45.279Z,6.59
2019-03-22T07:08:45.265Z,6.90
2019-03-22T07:09:45.260Z,7.40
2019-03-22T07:10:45.247Z,8.10
2019-03-22T07:11:45.285Z,9.39
2019-03-22T07:12:45.222Z,12.00
2019-03-22T07:13:45.207Z,16.00
2019-03-22T07:14:45.201Z,15.80
2019-03-22T07:15:45.190Z,18.89
2019-03-22T07:16:45.177Z,18.10
2019-03-22T07:17:45.417Z,19.20
2019-03-22T07:18:45.156Z,18.29
2019-03-22T07:19:45.142Z,17.89
2019-03-22T07:20:45.135Z,18.39
2019-03-22T07:21:45.121Z,18.60
2019-03-22T07:22:45.166Z,18.00
2019-03-22T07:23:45.149Z,17.10
2019-03-22T07:24:45.092Z,17.70
2019-03-22T07:25:45.080Z,16.50
2019-03-22T07:26:45.067Z,14.80
2019-03-22T07:27:45.058Z,11.80
2019-03-22T07:28:45.047Z,9.00
2019-03-22T07:29:45.084Z,4.69
2019-03-22T07:30:45.021Z,5.69
2019-03-22T07:31:45.013Z,6.40
2019-03-22T07:32:45.005Z,5.00
2019-03-22T07:33:44.995Z,4.09
2019-03-22T07:34:44.981Z,5.00
2019-03-22T07:35:45.176Z,5.00
2019-03-22T07:36:46.996Z,4.90
2019-03-22T07:37:44.947Z,7.00
2019-03-22T07:38:44.944Z,13.69
2019-03-22T07:39:44.930Z,17.50
2019-03-22T07:40:44.921Z,21.50
2019-03-22T07:41:44.964Z,20.39
2019-03-22T07:42:44.903Z,23.79
2019-03-22T07:43:44.886Z,23.10
2019-03-22T07:44:44.882Z,22.50
2019-03-22T07:45:44.874Z,23.50
2019-03-22T07:46:44.861Z,21.70
2019-03-22T07:47:44.945Z,20.89
2019-03-22T07:48:44.836Z,19.70
2019-03-22T07:49:44.826Z,19.29
2019-03-22T07:50:44.814Z,20.39
2019-03-22T07:51:44.806Z,19.89
2019-03-22T07:52:44.796Z,19.79
2019-03-22T07:53:45.233Z,18.29
2019-03-22T07:54:44.773Z,15.80
2019-03-22T07:55:44.765Z,16.20
2019-03-22T07:56:44.753Z,15.30
2019-03-22T07:57:44.743Z,15.60
2019-03-22T07:58:44.732Z,14.80
2019-03-22T07:59:44.773Z,15.10
2019-03-22T08:00:44.707Z,16.10
2019-03-22T08:01:44.699Z,15.39
2019-03-22T08:02:44.689Z,14.60
2019-03-22T08:03:44.676Z,13.19
2019-03-22T08:04:44.665Z,13.39
2019-03-22T08:05:50.788Z,14.19
2019-03-22T08:07:09.465Z,12.10
2019-03-22T08:08:09.448Z,12.50
2019-03-22T08:09:09.437Z,13.30
2019-03-22T08:10:09.430Z,8.19
2019-03-22T08:11:09.576Z,8.30
2019-03-22T08:12:09.403Z,3.40
2019-03-22T08:13:09.396Z,3.00
2019-03-22T08:14:09.384Z,2.40
2019-03-22T08:15:09.396Z,2.79
2019-03-22T08:16:09.383Z,3.09
2019-03-22T08:17:09.455Z,2.40
2019-03-22T08:18:09.377Z,2.70
2019-03-22T08:19:09.337Z,3.50
2019-03-22T08:20:09.324Z,3.70
2019-03-22T08:21:09.314Z,4.90
2019-03-22T08:22:09.330Z,3.20
2019-03-22T08:23:09.382Z,3.29
2019-03-22T08:24:09.277Z,3.50
2019-03-22T08:25:09.306Z,3.50
2019-03-22T08:26:09.269Z,3.09
2019-03-22T08:27:09.269Z,3.20
2019-03-22T08:28:09.238Z,3.00
2019-03-22T08:29:09.382Z,4.50
2019-03-22T08:30:09.220Z,8.69
2019-03-22T08:31:09.206Z,11.69
2019-03-22T08:32:09.212Z,12.00
2019-03-22T08:33:09.198Z,13.89
2019-03-22T08:34:09.179Z,11.30
2019-03-22T08:35:09.265Z,12.00
2019-03-22T08:36:09.158Z,12.10
2019-03-22T08:37:09.177Z,7.90
2019-03-22T08:38:09.130Z,7.50
2019-03-22T08:39:09.119Z,5.69
2019-03-22T08:40:09.144Z,7.59
2019-03-22T08:41:09.212Z,5.90
2019-03-22T08:42:09.093Z,6.00
2019-03-22T08:43:09.073Z,5.00
2019-03-22T08:44:09.071Z,4.80
2019-03-22T08:45:11.277Z,2.90
2019-03-22T08:46:09.043Z,4.90
2019-03-22T08:47:09.181Z,4.40
2019-03-22T08:48:09.023Z,4.69
2019-03-22T08:49:09.690Z,4.40
2019-03-22T08:50:08.998Z,4.30
2019-03-22T08:51:09.021Z,3.90
2019-03-22T08:52:08.999Z,3.40
2019-03-22T08:53:09.016Z,4.09
2019-03-22T08:54:08.996Z,4.00
2019-03-22T08:55:08.946Z,4.40
2019-03-22T08:56:08.939Z,3.90
2019-03-22T08:57:08.927Z,4.59
2019-03-22T08:58:08.916Z,5.59
2019-03-22T08:59:09.115Z,5.90
2019-03-22T09:00:08.957Z,8.00
2019-03-22T09:01:08.901Z,4.80
2019-03-22T09:02:08.875Z,4.69
2019-03-22T09:03:08.860Z,4.09
2019-03-22T09:04:08.849Z,6.59
2019-03-22T09:05:08.990Z,7.00
2019-03-22T09:06:08.829Z,3.59
2019-03-22T09:07:08.831Z,3.29
2019-03-22T09:08:08.805Z,4.19
2019-03-22T09:09:08.791Z,4.40
2019-03-22T09:10:08.791Z,4.40
2019-03-22T09:11:08.857Z,5.80
2019-03-22T09:12:08.788Z,5.69
2019-03-22T09:13:08.749Z,2.90
2019-03-22T09:14:08.760Z,3.40
2019-03-22T09:15:08.749Z,3.29
2019-03-22T09:16:08.723Z,3.09
2019-03-22T09:17:08.781Z,3.70
2019-03-22T09:18:08.701Z,4.40
2019-03-22T09:19:08.698Z,3.50
2019-03-22T09:20:08.733Z,3.70
2019-03-22T09:21:08.665Z,3.00
2019-03-22T09:22:08.699Z,2.70
2019-03-22T09:23:08.798Z,3.29
2019-03-22T09:24:08.633Z,3.00
2019-03-22T09:25:08.629Z,3.79
2019-03-22T09:26:08.641Z,7.30
2019-03-22T09:27:08.606Z,4.59
2019-03-22T09:28:10.384Z,4.40
2019-03-22T09:29:08.641Z,3.20
2019-03-22T09:30:08.586Z,3.20
2019-03-22T09:31:10.611Z,4.09
2019-03-22T09:32:08.600Z,3.79
2019-03-22T09:33:08.554Z,3.59
2019-03-22T09:34:08.528Z,5.19
2019-03-22T09:35:08.568Z,5.40
2019-03-22T09:36:08.535Z,4.19
2019-03-22T09:37:09.048Z,4.00
2019-03-22T09:38:13.127Z,7.59
2019-03-22T09:39:08.530Z,3.40
2019-03-22T09:40:08.812Z,4.50
2019-03-22T09:41:08.615Z,5.09
2019-03-22T09:42:08.523Z,5.69
2019-03-22T09:43:08.428Z,4.40
2019-03-22T09:44:08.428Z,3.20
2019-03-22T09:45:08.407Z,3.40
2019-03-22T09:46:08.394Z,3.50
2019-03-22T09:47:08.543Z,4.00
2019-03-22T09:48:08.377Z,4.09
2019-03-22T09:49:08.364Z,2.70
2019-03-22T09:50:08.354Z,3.00
2019-03-22T09:51:08.344Z,3.20
2019-03-22T09:52:42.907Z,2.59
2019-03-22T09:53:08.333Z,4.19
2019-03-22T09:54:08.309Z,3.50
2019-03-22T09:55:13.664Z,2.50
2019-03-22T09:56:08.292Z,3.29
2019-03-22T09:57:08.280Z,4.30
2019-03-22T09:58:08.456Z,3.70
2019-03-22T09:59:08.260Z,3.29
2019-03-22T10:00:08.299Z,3.20
2019-03-22T10:01:08.274Z,4.90
2019-03-22T10:02:08.224Z,4.59
2019-03-22T10:03:08.213Z,2.79
2019-03-22T10:04:08.272Z,3.50
2019-03-22T10:05:08.213Z,4.59
2019-03-22T10:06:08.177Z,3.50
2019-03-22T10:07:08.177Z,5.09
2019-03-22T10:08:08.182Z,3.90
2019-03-22T10:09:08.147Z,3.90
2019-03-22T10:10:08.182Z,3.79
2019-03-22T10:11:08.155Z,5.00
2019-03-22T10:12:08.128Z,5.09
2019-03-22T10:13:08.137Z,5.30
2019-03-22T10:14:08.093Z,5.90
2019-03-22T10:15:08.088Z,6.80
2019-03-22T10:16:08.286Z,5.90
2019-03-22T10:17:08.092Z,4.59
2019-03-22T10:18:08.055Z,5.40
2019-03-22T10:19:08.095Z,5.90
2019-03-22T10:20:08.031Z,4.40
2019-03-22T10:21:08.019Z,6.59
2019-03-22T10:22:08.067Z,6.00
2019-03-22T10:23:07.997Z,6.59
2019-03-22T10:24:07.986Z,4.90
2019-03-22T10:25:08.051Z,7.30
2019-03-22T10:26:07.964Z,6.59
2019-03-22T10:27:07.958Z,5.00
2019-03-22T10:28:08.056Z,3.00
2019-03-22T10:29:07.960Z,4.80
2019-03-22T10:30:07.954Z,2.79
2019-03-22T10:31:07.914Z,3.09
2019-03-22T10:32:07.898Z,3.50
2019-03-22T10:33:07.970Z,3.79
2019-03-22T10:34:08.085Z,3.09
2019-03-22T10:35:07.931Z,3.09
2019-03-22T10:36:07.923Z,3.59
2019-03-22T10:37:07.845Z,2.09
2019-03-22T10:38:15.908Z,3.50
2019-03-22T10:39:32.723Z,2.70
2019-03-22T10:40:32.713Z,2.59
2019-03-22T10:41:32.665Z,4.30
2019-03-22T10:42:32.681Z,2.50
2019-03-22T10:43:32.650Z,2.20
2019-03-22T10:44:32.683Z,2.09
2019-03-22T10:45:32.694Z,2.50
2019-03-22T10:46:32.614Z,3.29
2019-03-22T10:47:32.635Z,3.50
2019-03-22T10:48:32.685Z,3.59
2019-03-22T10:49:32.584Z,3.70
2019-03-22T10:50:32.774Z,5.09
2019-03-22T10:51:32.565Z,3.40
2019-03-22T10:52:32.550Z,3.40
2019-03-22T10:53:32.602Z,3.09
2019-03-22T10:54:32.534Z,3.79
2019-03-22T10:55:35.378Z,3.20
2019-03-22T10:56:32.559Z,2.90
2019-03-22T10:57:32.495Z,3.70
2019-03-22T10:58:32.484Z,3.29
2019-03-22T10:59:32.475Z,3.40
2019-03-22T11:00:32.462Z,4.09
2019-03-22T11:01:32.455Z,6.30
2019-03-22T11:02:32.486Z,8.00
2019-03-22T11:03:32.484Z,6.30
2019-03-22T11:04:32.420Z,4.09
2019-03-22T11:05:32.408Z,3.90
2019-03-22T11:06:32.399Z,4.09
2019-03-22T11:07:32.390Z,3.90
2019-03-22T11:08:32.528Z,6.40
2019-03-22T11:09:32.365Z,5.90
2019-03-22T11:10:32.354Z,3.90
2019-03-22T11:11:32.344Z,4.30
2019-03-22T11:12:32.334Z,4.50
2019-03-22T11:13:32.322Z,5.59
2019-03-22T11:14:32.362Z,5.30
2019-03-22T11:15:32.295Z,4.00
2019-03-22T11:16:32.289Z,3.59
2019-03-22T11:17:32.279Z,4.00
2019-03-22T11:18:37.288Z,5.09
2019-03-22T11:19:32.255Z,4.59
2019-03-22T11:20:32.346Z,4.30
2019-03-22T11:21:32.232Z,3.59
2019-03-22T11:22:32.224Z,4.40
2019-03-22T11:23:32.215Z,1.90
2019-03-22T11:24:32.204Z,1.70
2019-03-22T11:25:32.193Z,2.29
2019-03-22T11:26:32.430Z,2.90
2019-03-22T11:27:32.170Z,4.50
2019-03-22T11:28:32.155Z,4.80
2019-03-22T11:29:32.150Z,5.19
2019-03-22T11:30:32.135Z,6.90
2019-03-22T11:31:39.511Z,6.19
2019-03-22T11:32:56.980Z,4.30
2019-03-22T11:33:56.968Z,4.80
2019-03-22T11:34:56.958Z,5.69
2019-03-22T11:35:56.949Z,5.00
2019-03-22T11:36:56.934Z,5.30
2019-03-22T11:37:56.980Z,4.40
2019-03-22T11:38:56.912Z,4.80
2019-03-22T11:39:56.905Z,5.30
2019-03-22T11:40:56.891Z,6.50
2019-03-22T11:41:56.883Z,6.30
2019-03-22T11:42:56.871Z,5.90
2019-03-22T11:43:57.071Z,6.59
2019-03-22T11:44:56.851Z,4.69
2019-03-22T11:45:56.837Z,4.59
2019-03-22T11:46:56.825Z,3.79
2019-03-22T11:47:56.820Z,4.80
2019-03-22T11:48:56.802Z,4.40
2019-03-22T11:49:56.899Z,4.30
2019-03-22T11:50:56.786Z,6.59
2019-03-22T11:51:56.777Z,6.40
2019-03-22T11:52:56.767Z,5.69
2019-03-22T11:53:56.756Z,5.19
2019-03-22T11:54:56.742Z,4.30
2019-03-22T11:55:56.776Z,5.19
2019-03-22T11:56:56.721Z,4.59
2019-03-22T11:57:56.714Z,5.00
2019-03-22T11:58:56.695Z,5.19
2019-03-22T11:59:56.690Z,5.09
2019-03-22T12:00:56.674Z,5.69
2019-03-22T12:01:56.819Z,5.59
2019-03-22T12:02:56.652Z,5.00
2019-03-22T12:03:56.645Z,5.90
2019-03-22T12:04:56.632Z,6.59
2019-03-22T12:05:56.624Z,6.19
2019-03-22T12:06:56.613Z,5.80
2019-03-22T12:07:56.653Z,6.19
2019-03-22T12:08:56.590Z,4.90
2019-03-22T12:09:56.578Z,5.19
2019-03-22T12:10:56.563Z,5.59
2019-03-22T12:11:56.556Z,4.90
2019-03-22T12:12:56.548Z,4.80
2019-03-22T12:13:56.586Z,5.30
2019-03-22T12:14:56.526Z,5.00
2019-03-22T12:15:56.514Z,5.69
2019-03-22T12:16:56.786Z,6.00
2019-03-22T12:17:56.491Z,6.40
2019-03-22T12:18:56.478Z,5.59
2019-03-22T12:19:56.621Z,6.30
2019-03-22T12:20:56.655Z,5.30
2019-03-22T12:21:56.446Z,4.80
2019-03-22T12:22:56.437Z,3.59
2019-03-22T12:23:56.425Z,3.09
2019-03-22T12:24:56.417Z,4.19
2019-03-22T12:25:56.449Z,3.00
2019-03-22T12:26:56.393Z,4.00
2019-03-22T12:27:56.381Z,3.29
2019-03-22T12:28:56.372Z,3.29
2019-03-22T12:29:56.358Z,3.70
2019-03-22T12:30:56.346Z,4.40
2019-03-22T12:31:56.439Z,4.19
2019-03-22T12:32:56.327Z,3.90
2019-03-22T12:33:56.319Z,4.09
2019-03-22T12:34:56.306Z,3.09
2019-03-22T12:35:56.299Z,3.40
2019-03-22T12:36:56.277Z,3.40
2019-03-22T12:37:57.781Z,4.00
2019-03-22T12:38:56.265Z,4.80
2019-03-22T12:39:56.253Z,4.50
2019-03-22T12:40:56.237Z,4.09
2019-03-22T12:41:56.230Z,3.79
2019-03-22T12:42:56.748Z,4.00
2019-03-22T12:43:56.256Z,4.30
2019-03-22T12:44:56.193Z,4.30
2019-03-22T12:45:56.185Z,4.30
2019-03-22T12:46:56.170Z,3.79
2019-03-22T12:47:56.158Z,3.50
2019-03-22T12:48:56.149Z,4.00
2019-03-22T12:49:56.243Z,4.50
2019-03-22T12:50:56.129Z,4.09
2019-03-22T12:51:56.112Z,4.40
2019-03-22T12:52:56.121Z,3.29
2019-03-22T12:53:56.093Z,3.59
2019-03-22T12:54:56.080Z,3.70
2019-03-22T12:55:56.225Z,3.90
2019-03-22T12:56:56.061Z,3.79
2019-03-22T12:57:56.053Z,4.00
2019-03-22T12:58:56.037Z,3.79
2019-03-22T12:59:56.027Z,3.09
2019-03-22T13:00:56.020Z,3.40
2019-03-22T13:01:56.110Z,3.70
2019-03-22T13:02:55.999Z,4.40
2019-03-22T13:03:55.988Z,4.19
2019-03-22T13:04:55.971Z,3.79
2019-03-22T13:05:55.962Z,4.90
2019-03-22T13:06:55.955Z,5.30
2019-03-22T13:07:55.994Z,5.09
2019-03-22T13:08:55.931Z,6.09
2019-03-22T13:09:55.915Z,7.09
2019-03-22T13:10:55.905Z,5.90
2019-03-22T13:11:55.896Z,6.00
2019-03-22T13:12:55.884Z,4.59
2019-03-22T13:13:56.074Z,4.30
2019-03-22T13:14:56.718Z,3.59
2019-03-22T13:15:55.864Z,3.79
2019-03-22T13:16:55.838Z,4.00
2019-03-22T13:17:55.832Z,4.00
2019-03-22T13:18:55.823Z,3.50
2019-03-22T13:19:55.860Z,3.79
2019-03-22T13:20:55.799Z,3.59
2019-03-22T13:21:55.790Z,4.09
2019-03-22T13:22:55.778Z,4.30
2019-03-22T13:23:55.763Z,4.19
2019-03-22T13:24:55.749Z,3.40
2019-03-22T13:25:55.849Z,4.09
2019-03-22T13:26:55.728Z,3.59
2019-03-22T13:27:55.719Z,4.19
2019-03-22T13:28:55.713Z,3.59
2019-03-22T13:29:55.697Z,3.90
2019-03-22T13:30:55.691Z,3.90
2019-03-22T13:31:55.832Z,4.40
2019-03-22T13:32:55.667Z,4.30
2019-03-22T13:33:55.657Z,4.40
2019-03-22T13:34:55.643Z,4.59
2019-03-22T13:35:55.635Z,5.59
2019-03-22T13:36:55.622Z,5.
2019-03-22T13:37:55.665Z,4.
2019-03-22T13:38:55.603Z,4.
2019-03-22T13:39:55.595Z,5.
2019-03-22T13:40:55.580Z,4.
2019-03-22T13:41:55.570Z,4.
2019-03-22T13:42:55.556Z,3.
2019-03-22T13:43:55.651Z,3.
2019-03-22T13:44:55.543Z,4.
2019-03-22T13:45:55.523Z,4.
2019-03-22T13:46:55.518Z,5.
2019-03-22T13:47:55.503Z,5.
2019-03-22T13:48:55.497Z,5.
2019-03-22T13:49:55.630Z,4.
2019-03-22T13:50:55.470Z,5.
2019-03-22T13:51:55.464Z,5.
2019-03-22T13:52:55.451Z,5.
2019-03-22T13:53:55.445Z,5.
2019-03-22T13:54:55.434Z,4.
2019-03-22T13:55:55.466Z,4.
2019-03-22T13:56:55.405Z,4.
2019-03-22T14:37:19.840Z,1
2019-03-22T14:38:19.777Z,1
2019-03-22T14:39:19.766Z,1
2019-03-22T14:40:19.752Z,1
2019-03-22T14:41:19.745Z,1
2019-03-22T14:42:19.733Z,1
2019-03-22T14:43:19.867Z,1
2019-03-22T14:44:25.184Z,1
2019-03-22T14:45:19.704Z,1
2019-03-22T14:46:19.689Z,1
2019-03-22T14:47:19.682Z,1
2019-03-22T14:48:19.665Z,1
2019-03-22T14:49:19.753Z,1
2019-03-22T14:50:19.643Z,1
2019-03-22T14:51:19.630Z,1
2019-03-22T14:52:19.625Z,1
2019-03-22T14:53:19.607Z,1
2019-03-22T14:54:19.603Z,1
2019-03-22T14:55:19.688Z,1
2019-03-22T14:56:19.574Z,1
2019-03-22T14:57:19.566Z,1
2019-03-22T14:58:19.557Z,1
2019-03-22T14:59:19.542Z,1
2019-03-22T15:00:19.540Z,1
2019-03-22T15:01:19.674Z,1
2019-03-22T15:02:19.515Z,1
2019-03-22T15:03:22.608Z,1